sensor_id;sensor_type;location;lat;lon;timestamp;temperature;humidity
21298;DHT22;10808;48.010;11.326;2023-04-03T00:01:21;4.30;99.90
21298;DHT22;10808;48.010;11.326;2023-04-03T00:03:54;4.20;99.90
21298;DHT22;10808;48.010;11.326;2023-04-03T00:06:21;4.30;99.90
21298;DHT22;10808;48.010;11.326;2023-04-03T00:08:47;4.30;99.90
21298;DHT22;10808;48.010;11.326;2023-04-03T00:11:13;4.30;99.90
21298;DHT22;10808;48.010;11.326;2023-04-03T00:13:42;4.30;99.90
21298;DHT22;10808;48.010;11.326;2023-04-03T00:16:11;4.20;99.90
21298;DHT22;10808;48.010;11.326;2023-04-03T00:18:39;4.20;99.90
21298;DHT22;10808;48.010;11.326;2023-04-03T00:21:07;4.20;99.90
21298;DHT22;10808;48.010;11.326;2023-04-03T00:23:34;4.10;99.90
21298;DHT22;10808;48.010;11.326;2023-04-03T00:26:00;4.10;99.90
21298;DHT22;10808;48.010;11.326;2023-04-03T00:28:30;4.10;99.90
21298;DHT22;10808;48.010;11.326;2023-04-03T00:30:56;4.10;99.90
21298;DHT22;10808;48.010;11.326;2023-04-03T00:33:23;4.10;99.90
21298;DHT22;10808;48.010;11.326;2023-04-03T00:35:50;4.10;99.90
21298;DHT22;10808;48.010;11.326;2023-04-03T00:38:18;4.10;99.90
21298;DHT22;10808;48.010;11.326;2023-04-03T00:40:48;4.10;99.90
21298;DHT22;10808;48.010;11.326;2023-04-03T00:43:24;4.00;99.90
21298;DHT22;10808;48.010;11.326;2023-04-03T00:45:55;4.00;99.90
21298;DHT22;10808;48.010;11.326;2023-04-03T00:48:31;4.00;99.90
21298;DHT22;10808;48.010;11.326;2023-04-03T00:51:00;4.00;99.90
21298;DHT22;10808;48.010;11.326;2023-04-03T00:53:55;4.00;99.90
21298;DHT22;10808;48.010;11.326;2023-04-03T00:56:21;4.00;99.90
21298;DHT22;10808;48.010;11.326;2023-04-03T00:59:01;4.00;99.90
21298;DHT22;10808;48.010;11.326;2023-04-03T01:01:29;4.00;99.90
21298;DHT22;10808;48.010;11.326;2023-04-03T01:03:59;4.00;99.90
21298;DHT22;10808;48.010;11.326;2023-04-03T01:06:28;4.00;99.90
21298;DHT22;10808;48.010;11.326;2023-04-03T01:09:06;4.00;99.90
21298;DHT22;10808;48.010;11.326;2023-04-03T01:11:35;3.90;99.90
21298;DHT22;10808;48.010;11.326;2023-04-03T01:14:14;3.90;99.90
21298;DHT22;10808;48.010;11.326;2023-04-03T01:16:40;4.00;99.90
21298;DHT22;10808;48.010;11.326;2023-04-03T01:19:13;4.00;99.90
21298;DHT22;10808;48.010;11.326;2023-04-03T01:21:56;4.00;99.90
21298;DHT22;10808;48.010;11.326;2023-04-03T01:24:34;3.90;99.90
21298;DHT22;10808;48.010;11.326;2023-04-03T01:27:02;3.90;99.90
21298;DHT22;10808;48.010;11.326;2023-04-03T01:29:35;3.80;99.90
21298;DHT22;10808;48.010;11.326;2023-04-03T01:32:08;3.90;99.90
21298;DHT22;10808;48.010;11.326;2023-04-03T01:34:41;3.80;99.90
21298;DHT22;10808;48.010;11.326;2023-04-03T01:37:08;3.80;99.90
21298;DHT22;10808;48.010;11.326;2023-04-03T01:39:34;3.90;99.90
21298;DHT22;10808;48.010;11.326;2023-04-03T01:42:00;3.90;99.90
21298;DHT22;10808;48.010;11.326;2023-04-03T01:44:26;3.90;99.90
21298;DHT22;10808;48.010;11.326;2023-04-03T01:46:53;3.90;99.90
21298;DHT22;10808;48.010;11.326;2023-04-03T01:49:28;3.90;99.90
21298;DHT22;10808;48.010;11.326;2023-04-03T01:51:54;3.90;99.90
21298;DHT22;10808;48.010;11.326;2023-04-03T01:54:20;3.90;99.90
21298;DHT22;10808;48.010;11.326;2023-04-03T01:56:52;3.80;99.90
21298;DHT22;10808;48.010;11.326;2023-04-03T01:59:18;3.80;99.90
21298;DHT22;10808;48.010;11.326;2023-04-03T02:01:44;3.90;99.90
21298;DHT22;10808;48.010;11.326;2023-04-03T02:04:11;3.90;99.90
21298;DHT22;10808;48.010;11.326;2023-04-03T02:06:44;3.90;99.90
21298;DHT22;10808;48.010;11.326;2023-04-03T02:09:10;3.90;99.90
21298;DHT22;10808;48.010;11.326;2023-04-03T02:11:36;3.80;99.90
21298;DHT22;10808;48.010;11.326;2023-04-03T02:14:04;3.80;99.90
21298;DHT22;10808;48.010;11.326;2023-04-03T02:16:31;3.80;99.90
21298;DHT22;10808;48.010;11.326;2023-04-03T02:18:59;3.80;99.90
21298;DHT22;10808;48.010;11.326;2023-04-03T02:21:26;3.80;99.90
21298;DHT22;10808;48.010;11.326;2023-04-03T02:23:52;3.80;99.90
21298;DHT22;10808;48.010;11.326;2023-04-03T02:26:19;3.80;99.90
21298;DHT22;10808;48.010;11.326;2023-04-03T02:28:45;3.80;99.90
21298;DHT22;10808;48.010;11.326;2023-04-03T02:31:12;3.80;99.90
21298;DHT22;10808;48.010;11.326;2023-04-03T02:33:39;3.80;99.90
21298;DHT22;10808;48.010;11.326;2023-04-03T02:36:14;3.90;99.90
21298;DHT22;10808;48.010;11.326;2023-04-03T02:38:44;3.90;99.90
21298;DHT22;10808;48.010;11.326;2023-04-03T02:41:12;4.00;99.90
21298;DHT22;10808;48.010;11.326;2023-04-03T02:43:38;3.90;99.90
21298;DHT22;10808;48.010;11.326;2023-04-03T02:46:05;4.00;99.90
21298;DHT22;10808;48.010;11.326;2023-04-03T02:48:35;4.00;99.90
21298;DHT22;10808;48.010;11.326;2023-04-03T02:51:02;3.90;99.90
21298;DHT22;10808;48.010;11.326;2023-04-03T02:53:28;3.90;99.90
21298;DHT22;10808;48.010;11.326;2023-04-03T02:55:56;3.80;99.90
21298;DHT22;10808;48.010;11.326;2023-04-03T02:58:23;3.80;99.90
21298;DHT22;10808;48.010;11.326;2023-04-03T03:00:49;3.80;99.90
21298;DHT22;10808;48.010;11.326;2023-04-03T03:03:15;3.90;99.90
21298;DHT22;10808;48.010;11.326;2023-04-03T03:05:41;3.90;99.90
21298;DHT22;10808;48.010;11.326;2023-04-03T03:08:09;4.00;99.90
21298;DHT22;10808;48.010;11.326;2023-04-03T03:10:35;3.90;99.90
21298;DHT22;10808;48.010;11.326;2023-04-03T03:13:09;4.00;99.90
21298;DHT22;10808;48.010;11.326;2023-04-03T03:15:37;3.90;99.90
21298;DHT22;10808;48.010;11.326;2023-04-03T03:18:14;3.90;99.90
21298;DHT22;10808;48.010;11.326;2023-04-03T03:20:50;3.90;99.90
21298;DHT22;10808;48.010;11.326;2023-04-03T03:23:16;3.90;99.90
21298;DHT22;10808;48.010;11.326;2023-04-03T03:25:43;3.90;99.90
21298;DHT22;10808;48.010;11.326;2023-04-03T03:28:10;3.90;99.90
21298;DHT22;10808;48.010;11.326;2023-04-03T03:30:37;3.80;99.90
21298;DHT22;10808;48.010;11.326;2023-04-03T03:33:04;3.90;99.90
21298;DHT22;10808;48.010;11.326;2023-04-03T03:35:32;3.90;99.90
21298;DHT22;10808;48.010;11.326;2023-04-03T03:37:58;3.90;99.90
21298;DHT22;10808;48.010;11.326;2023-04-03T03:40:24;3.90;99.90
21298;DHT22;10808;48.010;11.326;2023-04-03T03:42:50;3.80;99.90
21298;DHT22;10808;48.010;11.326;2023-04-03T03:45:18;3.90;99.90
21298;DHT22;10808;48.010;11.326;2023-04-03T03:47:44;3.90;99.90
21298;DHT22;10808;48.010;11.326;2023-04-03T03:50:11;3.90;99.90
21298;DHT22;10808;48.010;11.326;2023-04-03T03:52:38;4.00;99.90
21298;DHT22;10808;48.010;11.326;2023-04-03T03:55:12;3.90;99.90
21298;DHT22;10808;48.010;11.326;2023-04-03T03:57:43;4.00;99.90
21298;DHT22;10808;48.010;11.326;2023-04-03T04:00:09;3.90;99.90
21298;DHT22;10808;48.010;11.326;2023-04-03T04:02:36;4.00;99.90
21298;DHT22;10808;48.010;11.326;2023-04-03T04:05:02;3.90;99.90
21298;DHT22;10808;48.010;11.326;2023-04-03T04:07:29;3.90;99.90
21298;DHT22;10808;48.010;11.326;2023-04-03T04:09:55;3.90;99.90
21298;DHT22;10808;48.010;11.326;2023-04-03T04:12:30;3.90;99.90
21298;DHT22;10808;48.010;11.326;2023-04-03T04:14:56;3.90;99.90
21298;DHT22;10808;48.010;11.326;2023-04-03T04:17:22;3.90;99.90
21298;DHT22;10808;48.010;11.326;2023-04-03T04:19:48;4.00;99.90
21298;DHT22;10808;48.010;11.326;2023-04-03T04:22:14;3.90;99.90
21298;DHT22;10808;48.010;11.326;2023-04-03T04:24:40;3.90;99.90
21298;DHT22;10808;48.010;11.326;2023-04-03T04:27:06;3.90;99.90
21298;DHT22;10808;48.010;11.326;2023-04-03T04:29:33;3.90;99.90
21298;DHT22;10808;48.010;11.326;2023-04-03T04:32:02;3.90;99.90
21298;DHT22;10808;48.010;11.326;2023-04-03T04:34:28;3.90;99.90
21298;DHT22;10808;48.010;11.326;2023-04-03T04:36:55;3.90;99.90
21298;DHT22;10808;48.010;11.326;2023-04-03T04:39:21;3.90;99.90
21298;DHT22;10808;48.010;11.326;2023-04-03T04:41:47;3.90;99.90
21298;DHT22;10808;48.010;11.326;2023-04-03T04:44:19;3.90;99.90
21298;DHT22;10808;48.010;11.326;2023-04-03T04:46:54;3.90;99.90
21298;DHT22;10808;48.010;11.326;2023-04-03T04:49:20;3.90;99.90
21298;DHT22;10808;48.010;11.326;2023-04-03T04:51:53;4.00;99.90
21298;DHT22;10808;48.010;11.326;2023-04-03T04:54:19;3.80;99.90
21298;DHT22;10808;48.010;11.326;2023-04-03T04:56:50;3.90;99.90
21298;DHT22;10808;48.010;11.326;2023-04-03T04:59:16;3.90;99.90
21298;DHT22;10808;48.010;11.326;2023-04-03T05:01:42;3.90;99.90
21298;DHT22;10808;48.010;11.326;2023-04-03T05:04:10;3.90;99.90
21298;DHT22;10808;48.010;11.326;2023-04-03T05:06:38;3.80;99.90
21298;DHT22;10808;48.010;11.326;2023-04-03T05:09:04;3.80;99.90
21298;DHT22;10808;48.010;11.326;2023-04-03T05:11:31;3.90;99.90
21298;DHT22;10808;48.010;11.326;2023-04-03T05:13:57;3.80;99.90
21298;DHT22;10808;48.010;11.326;2023-04-03T05:16:23;3.80;99.90
21298;DHT22;10808;48.010;11.326;2023-04-03T05:18:49;3.80;99.90
21298;DHT22;10808;48.010;11.326;2023-04-03T05:21:19;3.80;99.90
21298;DHT22;10808;48.010;11.326;2023-04-03T05:23:45;3.80;99.90
21298;DHT22;10808;48.010;11.326;2023-04-03T05:26:11;3.80;99.90
21298;DHT22;10808;48.010;11.326;2023-04-03T05:28:38;3.90;99.90
21298;DHT22;10808;48.010;11.326;2023-04-03T05:31:04;3.90;99.90
21298;DHT22;10808;48.010;11.326;2023-04-03T05:33:30;3.90;99.90
21298;DHT22;10808;48.010;11.326;2023-04-03T05:35:56;3.90;99.90
21298;DHT22;10808;48.010;11.326;2023-04-03T05:38:22;3.90;99.90
21298;DHT22;10808;48.010;11.326;2023-04-03T05:40:49;3.90;99.90
21298;DHT22;10808;48.010;11.326;2023-04-03T05:43:15;4.00;99.90
21298;DHT22;10808;48.010;11.326;2023-04-03T05:45:42;3.90;99.90
21298;DHT22;10808;48.010;11.326;2023-04-03T05:48:08;3.90;99.90
21298;DHT22;10808;48.010;11.326;2023-04-03T05:50:34;3.90;99.90
21298;DHT22;10808;48.010;11.326;2023-04-03T05:53:02;3.90;99.90
21298;DHT22;10808;48.010;11.326;2023-04-03T05:55:28;3.90;99.90
21298;DHT22;10808;48.010;11.326;2023-04-03T05:57:54;3.90;99.90
21298;DHT22;10808;48.010;11.326;2023-04-03T06:00:20;3.90;99.90
21298;DHT22;10808;48.010;11.326;2023-04-03T06:02:47;3.90;99.90
21298;DHT22;10808;48.010;11.326;2023-04-03T06:05:13;3.90;99.90
21298;DHT22;10808;48.010;11.326;2023-04-03T06:07:40;3.90;99.90
21298;DHT22;10808;48.010;11.326;2023-04-03T06:10:06;3.90;99.90
21298;DHT22;10808;48.010;11.326;2023-04-03T06:12:33;3.90;99.90
21298;DHT22;10808;48.010;11.326;2023-04-03T06:14:59;4.00;99.90
21298;DHT22;10808;48.010;11.326;2023-04-03T06:17:25;4.00;99.90
21298;DHT22;10808;48.010;11.326;2023-04-03T06:19:52;4.00;99.90
21298;DHT22;10808;48.010;11.326;2023-04-03T06:22:18;4.00;99.90
21298;DHT22;10808;48.010;11.326;2023-04-03T06:24:44;4.00;99.90
21298;DHT22;10808;48.010;11.326;2023-04-03T06:27:11;4.00;99.90
21298;DHT22;10808;48.010;11.326;2023-04-03T06:29:38;3.90;99.90
21298;DHT22;10808;48.010;11.326;2023-04-03T06:32:04;3.90;99.90
21298;DHT22;10808;48.010;11.326;2023-04-03T06:34:30;3.90;99.90
21298;DHT22;10808;48.010;11.326;2023-04-03T06:36:57;4.00;99.90
21298;DHT22;10808;48.010;11.326;2023-04-03T06:39:23;4.00;99.90
21298;DHT22;10808;48.010;11.326;2023-04-03T06:41:50;4.00;99.90
21298;DHT22;10808;48.010;11.326;2023-04-03T06:44:17;4.00;99.90
21298;DHT22;10808;48.010;11.326;2023-04-03T06:46:43;4.10;99.90
21298;DHT22;10808;48.010;11.326;2023-04-03T06:49:10;4.10;99.90
21298;DHT22;10808;48.010;11.326;2023-04-03T06:51:37;4.10;99.90
21298;DHT22;10808;48.010;11.326;2023-04-03T06:54:04;4.10;99.90
21298;DHT22;10808;48.010;11.326;2023-04-03T06:56:32;4.10;99.90
21298;DHT22;10808;48.010;11.326;2023-04-03T06:58:58;4.10;99.90
21298;DHT22;10808;48.010;11.326;2023-04-03T07:01:26;4.20;99.90
21298;DHT22;10808;48.010;11.326;2023-04-03T07:03:54;4.10;99.90
21298;DHT22;10808;48.010;11.326;2023-04-03T07:06:20;4.10;99.90
21298;DHT22;10808;48.010;11.326;2023-04-03T07:08:47;4.20;99.90
21298;DHT22;10808;48.010;11.326;2023-04-03T07:11:15;4.20;99.90
21298;DHT22;10808;48.010;11.326;2023-04-03T07:13:41;4.20;99.90
21298;DHT22;10808;48.010;11.326;2023-04-03T07:16:08;4.20;99.90
21298;DHT22;10808;48.010;11.326;2023-04-03T07:18:34;4.20;99.90
21298;DHT22;10808;48.010;11.326;2023-04-03T07:21:01;4.30;99.90
21298;DHT22;10808;48.010;11.326;2023-04-03T07:23:27;4.30;99.90
21298;DHT22;10808;48.010;11.326;2023-04-03T07:25:53;4.30;99.90
21298;DHT22;10808;48.010;11.326;2023-04-03T07:28:21;4.30;99.90
21298;DHT22;10808;48.010;11.326;2023-04-03T07:30:50;4.40;99.90
21298;DHT22;10808;48.010;11.326;2023-04-03T07:33:18;4.40;99.90
21298;DHT22;10808;48.010;11.326;2023-04-03T07:35:45;4.40;99.90
21298;DHT22;10808;48.010;11.326;2023-04-03T07:38:11;4.40;99.90
21298;DHT22;10808;48.010;11.326;2023-04-03T07:41:14;4.50;99.90
21298;DHT22;10808;48.010;11.326;2023-04-03T07:44:02;4.50;99.90
21298;DHT22;10808;48.010;11.326;2023-04-03T07:46:28;4.60;99.90
21298;DHT22;10808;48.010;11.326;2023-04-03T07:48:54;4.60;99.90
21298;DHT22;10808;48.010;11.326;2023-04-03T07:51:20;4.70;99.90
21298;DHT22;10808;48.010;11.326;2023-04-03T07:53:46;4.70;99.90
21298;DHT22;10808;48.010;11.326;2023-04-03T07:56:12;4.80;99.90
21298;DHT22;10808;48.010;11.326;2023-04-03T07:58:38;4.80;99.90
21298;DHT22;10808;48.010;11.326;2023-04-03T08:01:04;4.80;99.90
21298;DHT22;10808;48.010;11.326;2023-04-03T08:03:32;4.90;99.90
21298;DHT22;10808;48.010;11.326;2023-04-03T08:06:02;5.00;99.90
21298;DHT22;10808;48.010;11.326;2023-04-03T08:08:31;5.00;99.90
21298;DHT22;10808;48.010;11.326;2023-04-03T08:11:00;5.00;99.90
21298;DHT22;10808;48.010;11.326;2023-04-03T08:13:26;5.10;99.90
21298;DHT22;10808;48.010;11.326;2023-04-03T08:15:52;5.10;99.90
21298;DHT22;10808;48.010;11.326;2023-04-03T08:18:18;5.20;99.90
21298;DHT22;10808;48.010;11.326;2023-04-03T08:20:47;5.20;99.90
21298;DHT22;10808;48.010;11.326;2023-04-03T08:23:13;5.30;99.90
21298;DHT22;10808;48.010;11.326;2023-04-03T08:25:41;5.30;99.90
21298;DHT22;10808;48.010;11.326;2023-04-03T08:28:08;5.40;99.90
21298;DHT22;10808;48.010;11.326;2023-04-03T08:30:34;5.50;99.90
21298;DHT22;10808;48.010;11.326;2023-04-03T08:33:01;5.50;99.90
21298;DHT22;10808;48.010;11.326;2023-04-03T08:35:27;5.60;99.90
21298;DHT22;10808;48.010;11.326;2023-04-03T08:37:53;5.70;99.90
21298;DHT22;10808;48.010;11.326;2023-04-03T08:40:20;5.70;99.90
21298;DHT22;10808;48.010;11.326;2023-04-03T08:48:08;5.80;99.90
21298;DHT22;10808;48.010;11.326;2023-04-03T08:50:42;5.90;99.90
21298;DHT22;10808;48.010;11.326;2023-04-03T08:53:15;6.00;99.90
21298;DHT22;10808;48.010;11.326;2023-04-03T08:55:46;6.00;99.90
21298;DHT22;10808;48.010;11.326;2023-04-03T08:58:22;6.10;99.90
21298;DHT22;10808;48.010;11.326;2023-04-03T09:00:54;6.20;99.90
21298;DHT22;10808;48.010;11.326;2023-04-03T09:03:22;6.20;99.90
21298;DHT22;10808;48.010;11.326;2023-04-03T09:06:11;6.20;99.90
21298;DHT22;10808;48.010;11.326;2023-04-03T09:11:25;6.20;99.90
21298;DHT22;10808;48.010;11.326;2023-04-03T09:16:56;6.40;99.90
21298;DHT22;10808;48.010;11.326;2023-04-03T09:22:07;6.60;99.90
21298;DHT22;10808;48.010;11.326;2023-04-03T09:24:35;6.60;99.90
21298;DHT22;10808;48.010;11.326;2023-04-03T09:27:07;6.70;99.90
21298;DHT22;10808;48.010;11.326;2023-04-03T09:29:40;6.80;99.90
21298;DHT22;10808;48.010;11.326;2023-04-03T09:34:45;6.90;99.90
21298;DHT22;10808;48.010;11.326;2023-04-03T09:37:39;6.90;99.90
21298;DHT22;10808;48.010;11.326;2023-04-03T09:40:12;7.00;99.90
21298;DHT22;10808;48.010;11.326;2023-04-03T09:42:54;7.00;99.90
21298;DHT22;10808;48.010;11.326;2023-04-03T09:45:29;7.10;99.90
21298;DHT22;10808;48.010;11.326;2023-04-03T09:48:16;7.20;99.90
21298;DHT22;10808;48.010;11.326;2023-04-03T09:50:55;7.20;99.90
21298;DHT22;10808;48.010;11.326;2023-04-03T09:53:43;7.20;99.90
21298;DHT22;10808;48.010;11.326;2023-04-03T09:56:21;7.20;99.90
21298;DHT22;10808;48.010;11.326;2023-04-03T09:58:50;7.30;99.90
21298;DHT22;10808;48.010;11.326;2023-04-03T10:01:35;7.40;99.90
21298;DHT22;10808;48.010;11.326;2023-04-03T10:06:36;7.80;99.90
21298;DHT22;10808;48.010;11.326;2023-04-03T10:09:16;7.90;99.90
21298;DHT22;10808;48.010;11.326;2023-04-03T10:14:54;8.20;99.90
21298;DHT22;10808;48.010;11.326;2023-04-03T10:19:57;8.20;99.90
21298;DHT22;10808;48.010;11.326;2023-04-03T10:25:20;8.50;99.90
21298;DHT22;10808;48.010;11.326;2023-04-03T10:27:55;8.50;99.90
21298;DHT22;10808;48.010;11.326;2023-04-03T10:30:45;8.60;99.90
21298;DHT22;10808;48.010;11.326;2023-04-03T10:33:32;8.70;99.90
21298;DHT22;10808;48.010;11.326;2023-04-03T10:36:22;8.80;99.90
21298;DHT22;10808;48.010;11.326;2023-04-03T10:39:02;8.80;99.90
21298;DHT22;10808;48.010;11.326;2023-04-03T10:41:54;8.80;99.90
21298;DHT22;10808;48.010;11.326;2023-04-03T10:53:22;8.80;99.90
21298;DHT22;10808;48.010;11.326;2023-04-03T10:58:36;8.90;99.90
21298;DHT22;10808;48.010;11.326;2023-04-03T11:01:19;8.70;99.40
21298;DHT22;10808;48.010;11.326;2023-04-03T11:03:50;8.60;99.70
21298;DHT22;10808;48.010;11.326;2023-04-03T11:06:20;8.50;99.90
21298;DHT22;10808;48.010;11.326;2023-04-03T11:08:58;8.50;99.90
21298;DHT22;10808;48.010;11.326;2023-04-03T11:11:34;8.60;99.90
21298;DHT22;10808;48.010;11.326;2023-04-03T11:14:09;8.60;99.90
21298;DHT22;10808;48.010;11.326;2023-04-03T11:16:55;8.60;99.90
21298;DHT22;10808;48.010;11.326;2023-04-03T11:19:39;8.50;99.80
21298;DHT22;10808;48.010;11.326;2023-04-03T11:22:30;8.30;99.90
21298;DHT22;10808;48.010;11.326;2023-04-03T11:27:45;7.80;99.90
21298;DHT22;10808;48.010;11.326;2023-04-03T11:30:25;7.70;99.90
21298;DHT22;10808;48.010;11.326;2023-04-03T11:33:09;7.70;99.90
21298;DHT22;10808;48.010;11.326;2023-04-03T11:35:43;7.70;99.90
21298;DHT22;10808;48.010;11.326;2023-04-03T11:38:17;7.70;99.90
21298;DHT22;10808;48.010;11.326;2023-04-03T11:40:44;7.60;99.90
21298;DHT22;10808;48.010;11.326;2023-04-03T11:43:25;7.40;99.90
21298;DHT22;10808;48.010;11.326;2023-04-03T11:50:55;7.20;99.90
21298;DHT22;10808;48.010;11.326;2023-04-03T11:53:28;7.10;99.90
21298;DHT22;10808;48.010;11.326;2023-04-03T11:55:59;7.10;99.90
21298;DHT22;10808;48.010;11.326;2023-04-03T11:58:27;7.10;99.90
21298;DHT22;10808;48.010;11.326;2023-04-03T12:01:02;7.10;99.90
21298;DHT22;10808;48.010;11.326;2023-04-03T12:03:30;7.10;99.90
21298;DHT22;10808;48.010;11.326;2023-04-03T12:16:19;7.10;99.90
21298;DHT22;10808;48.010;11.326;2023-04-03T12:21:18;7.00;99.90
21298;DHT22;10808;48.010;11.326;2023-04-03T12:32:43;6.80;99.90
21298;DHT22;10808;48.010;11.326;2023-04-03T12:44:09;6.60;99.90
21298;DHT22;10808;48.010;11.326;2023-04-03T12:46:45;6.60;99.90
21298;DHT22;10808;48.010;11.326;2023-04-03T12:49:47;6.60;99.90
21298;DHT22;10808;48.010;11.326;2023-04-03T12:55:01;6.70;99.90
21298;DHT22;10808;48.010;11.326;2023-04-03T12:57:30;6.80;99.90
21298;DHT22;10808;48.010;11.326;2023-04-03T12:59:56;6.90;99.90
21298;DHT22;10808;48.010;11.326;2023-04-03T13:02:26;6.90;99.90
21298;DHT22;10808;48.010;11.326;2023-04-03T13:04:58;6.90;99.90
21298;DHT22;10808;48.010;11.326;2023-04-03T13:07:28;6.80;99.90
21298;DHT22;10808;48.010;11.326;2023-04-03T13:09:59;6.70;99.90
21298;DHT22;10808;48.010;11.326;2023-04-03T13:12:26;6.60;99.90
21298;DHT22;10808;48.010;11.326;2023-04-03T13:14:55;6.70;99.90
21298;DHT22;10808;48.010;11.326;2023-04-03T13:17:21;6.70;99.90
21298;DHT22;10808;48.010;11.326;2023-04-03T13:19:48;6.70;99.90
21298;DHT22;10808;48.010;11.326;2023-04-03T13:24:55;6.90;99.90
21298;DHT22;10808;48.010;11.326;2023-04-03T13:27:22;6.90;99.90
21298;DHT22;10808;48.010;11.326;2023-04-03T13:29:50;7.00;99.90
21298;DHT22;10808;48.010;11.326;2023-04-03T13:32:20;7.10;99.90
21298;DHT22;10808;48.010;11.326;2023-04-03T13:34:47;7.20;99.90
21298;DHT22;10808;48.010;11.326;2023-04-03T13:37:31;7.30;99.90
21298;DHT22;10808;48.010;11.326;2023-04-03T13:40:02;7.30;99.90
21298;DHT22;10808;48.010;11.326;2023-04-03T13:42:32;7.40;99.90
21298;DHT22;10808;48.010;11.326;2023-04-03T13:47:40;7.60;99.90
21298;DHT22;10808;48.010;11.326;2023-04-03T13:50:18;7.70;99.90
21298;DHT22;10808;48.010;11.326;2023-04-03T13:53:11;7.80;98.80
21298;DHT22;10808;48.010;11.326;2023-04-03T13:55:55;7.90;99.00
21298;DHT22;10808;48.010;11.326;2023-04-03T13:58:24;8.00;98.70
21298;DHT22;10808;48.010;11.326;2023-04-03T14:00:54;8.20;98.40
21298;DHT22;10808;48.010;11.326;2023-04-03T14:03:29;8.30;98.80
21298;DHT22;10808;48.010;11.326;2023-04-03T14:05:55;8.50;98.30
21298;DHT22;10808;48.010;11.326;2023-04-03T14:08:21;8.70;97.40
21298;DHT22;10808;48.010;11.326;2023-04-03T14:10:49;8.80;98.00
21298;DHT22;10808;48.010;11.326;2023-04-03T14:13:17;9.10;97.20
21298;DHT22;10808;48.010;11.326;2023-04-03T14:15:45;9.40;97.40
21298;DHT22;10808;48.010;11.326;2023-04-03T14:18:17;9.70;97.00
21298;DHT22;10808;48.010;11.326;2023-04-03T14:20:45;9.90;95.80
21298;DHT22;10808;48.010;11.326;2023-04-03T14:23:11;10.10;95.90
21298;DHT22;10808;48.010;11.326;2023-04-03T14:25:38;10.20;94.80
21298;DHT22;10808;48.010;11.326;2023-04-03T14:28:17;10.10;94.90
21298;DHT22;10808;48.010;11.326;2023-04-03T14:30:44;10.00;93.60
21298;DHT22;10808;48.010;11.326;2023-04-03T14:33:16;9.80;93.50
21298;DHT22;10808;48.010;11.326;2023-04-03T14:35:43;9.60;93.00
21298;DHT22;10808;48.010;11.326;2023-04-03T14:38:30;9.50;93.50
21298;DHT22;10808;48.010;11.326;2023-04-03T14:40:57;9.30;93.80
21298;DHT22;10808;48.010;11.326;2023-04-03T14:43:23;9.30;93.90
21298;DHT22;10808;48.010;11.326;2023-04-03T14:45:51;9.40;93.80
21298;DHT22;10808;48.010;11.326;2023-04-03T14:48:20;9.50;94.10
21298;DHT22;10808;48.010;11.326;2023-04-03T14:50:47;9.40;93.40
21298;DHT22;10808;48.010;11.326;2023-04-03T14:53:14;9.30;93.20
21298;DHT22;10808;48.010;11.326;2023-04-03T14:55:44;9.30;93.60
21298;DHT22;10808;48.010;11.326;2023-04-03T14:58:15;9.40;93.30
21298;DHT22;10808;48.010;11.326;2023-04-03T15:00:42;9.30;93.80
21298;DHT22;10808;48.010;11.326;2023-04-03T15:03:20;9.30;93.10
21298;DHT22;10808;48.010;11.326;2023-04-03T15:05:48;9.10;93.20
21298;DHT22;10808;48.010;11.326;2023-04-03T15:08:22;9.00;93.30
21298;DHT22;10808;48.010;11.326;2023-04-03T15:10:50;9.00;93.60
21298;DHT22;10808;48.010;11.326;2023-04-03T15:13:19;9.00;93.20
21298;DHT22;10808;48.010;11.326;2023-04-03T15:15:46;9.00;93.80
21298;DHT22;10808;48.010;11.326;2023-04-03T15:18:22;9.00;93.80
21298;DHT22;10808;48.010;11.326;2023-04-03T15:20:48;9.00;93.90
21298;DHT22;10808;48.010;11.326;2023-04-03T15:23:16;8.90;93.50
21298;DHT22;10808;48.010;11.326;2023-04-03T15:25:43;8.80;92.70
21298;DHT22;10808;48.010;11.326;2023-04-03T15:28:27;8.70;92.80
21298;DHT22;10808;48.010;11.326;2023-04-03T15:30:53;8.80;92.90
21298;DHT22;10808;48.010;11.326;2023-04-03T15:33:20;8.80;92.60
21298;DHT22;10808;48.010;11.326;2023-04-03T15:35:46;8.80;92.60
21298;DHT22;10808;48.010;11.326;2023-04-03T15:38:12;8.90;92.60
21298;DHT22;10808;48.010;11.326;2023-04-03T15:40:38;8.90;92.60
21298;DHT22;10808;48.010;11.326;2023-04-03T15:43:05;8.80;91.90
21298;DHT22;10808;48.010;11.326;2023-04-03T15:45:33;8.80;92.20
21298;DHT22;10808;48.010;11.326;2023-04-03T15:47:59;8.90;92.10
21298;DHT22;10808;48.010;11.326;2023-04-03T15:50:25;8.90;91.80
21298;DHT22;10808;48.010;11.326;2023-04-03T15:52:52;8.90;91.50
21298;DHT22;10808;48.010;11.326;2023-04-03T15:55:25;9.00;92.00
21298;DHT22;10808;48.010;11.326;2023-04-03T15:57:53;9.30;92.70
21298;DHT22;10808;48.010;11.326;2023-04-03T16:00:19;9.40;91.90
21298;DHT22;10808;48.010;11.326;2023-04-03T16:02:47;9.40;91.30
21298;DHT22;10808;48.010;11.326;2023-04-03T16:05:15;9.20;90.90
21298;DHT22;10808;48.010;11.326;2023-04-03T16:07:43;9.00;91.30
21298;DHT22;10808;48.010;11.326;2023-04-03T16:10:12;8.80;90.80
21298;DHT22;10808;48.010;11.326;2023-04-03T16:12:39;8.60;90.10
21298;DHT22;10808;48.010;11.326;2023-04-03T16:15:06;8.50;90.20
21298;DHT22;10808;48.010;11.326;2023-04-03T16:17:34;8.40;91.40
21298;DHT22;10808;48.010;11.326;2023-04-03T16:20:06;8.50;91.90
21298;DHT22;10808;48.010;11.326;2023-04-03T16:22:36;8.40;91.30
21298;DHT22;10808;48.010;11.326;2023-04-03T16:25:04;8.40;91.30
21298;DHT22;10808;48.010;11.326;2023-04-03T16:27:30;8.40;91.80
21298;DHT22;10808;48.010;11.326;2023-04-03T16:29:57;8.40;91.20
21298;DHT22;10808;48.010;11.326;2023-04-03T16:32:25;8.50;91.10
21298;DHT22;10808;48.010;11.326;2023-04-03T16:34:52;8.50;91.60
21298;DHT22;10808;48.010;11.326;2023-04-03T16:37:19;8.60;91.40
21298;DHT22;10808;48.010;11.326;2023-04-03T16:39:45;8.50;90.60
21298;DHT22;10808;48.010;11.326;2023-04-03T16:42:16;8.40;90.40
21298;DHT22;10808;48.010;11.326;2023-04-03T16:45:15;8.40;90.30
21298;DHT22;10808;48.010;11.326;2023-04-03T16:48:10;8.30;90.50
21298;DHT22;10808;48.010;11.326;2023-04-03T16:50:36;8.20;89.00
21298;DHT22;10808;48.010;11.326;2023-04-03T16:53:24;8.10;90.10
21298;DHT22;10808;48.010;11.326;2023-04-03T16:55:59;8.00;90.80
21298;DHT22;10808;48.010;11.326;2023-04-03T16:58:27;7.90;90.30
21298;DHT22;10808;48.010;11.326;2023-04-03T17:00:53;7.80;90.00
21298;DHT22;10808;48.010;11.326;2023-04-03T17:03:21;7.80;90.50
21298;DHT22;10808;48.010;11.326;2023-04-03T17:05:49;7.70;90.00
21298;DHT22;10808;48.010;11.326;2023-04-03T17:08:16;7.60;90.20
21298;DHT22;10808;48.010;11.326;2023-04-03T17:10:43;7.60;90.50
21298;DHT22;10808;48.010;11.326;2023-04-03T17:13:09;7.40;89.90